createdAt,value
2023-02-12T00:01:28.722Z,72.16
2023-02-12T00:03:56.912Z,71.40
2023-02-12T00:06:25.487Z,71.46
2023-02-12T00:08:54.514Z,70.92
2023-02-12T00:11:24.683Z,72.75
2023-02-12T00:13:52.949Z,74.32
2023-02-12T00:16:24.086Z,74.92
2023-02-12T00:18:54.852Z,74.10
2023-02-12T00:21:23.154Z,74.37
2023-02-12T00:23:51.283Z,73.81
2023-02-12T00:26:22.952Z,74.26
2023-02-12T00:28:54.322Z,74.58
2023-02-12T00:31:24.119Z,74.77
2023-02-12T00:33:53.807Z,73.84
2023-02-12T00:36:23.953Z,74.34
2023-02-12T00:38:53.027Z,75.20
2023-02-12T00:41:21.247Z,75.46
2023-02-12T00:43:49.690Z,75.47
2023-02-12T00:46:17.637Z,75.46
2023-02-12T00:48:45.748Z,75.86
2023-02-12T00:51:15.092Z,74.55
2023-02-12T00:53:45.050Z,74.81
2023-02-12T00:56:12.834Z,75.00
2023-02-12T00:58:41.351Z,73.95
2023-02-12T01:01:09.251Z,73.05
2023-02-12T01:03:37.319Z,73.64
2023-02-12T01:06:05.834Z,73.16
2023-02-12T01:08:34.934Z,72.55
2023-02-12T01:11:05.198Z,74.32
2023-02-12T01:13:34.245Z,74.65
2023-02-12T01:16:04.443Z,74.63
2023-02-12T01:18:32.260Z,73.71
2023-02-12T01:21:01.317Z,72.60
2023-02-12T01:23:29.547Z,73.27
2023-02-12T01:25:59.582Z,72.98
2023-02-12T01:28:27.616Z,72.77
2023-02-12T01:30:55.495Z,74.72
2023-02-12T01:33:23.226Z,76.49
2023-02-12T01:35:50.937Z,75.11
2023-02-12T01:38:18.990Z,75.67
2023-02-12T01:40:46.695Z,76.34
2023-02-12T01:43:15.849Z,75.19
2023-02-12T01:45:50.406Z,74.10
2023-02-12T01:48:20.237Z,73.33
2023-02-12T01:50:50.038Z,74.86
2023-02-12T01:53:20.886Z,74.31
2023-02-12T01:55:52.083Z,73.53
2023-02-12T01:58:25.052Z,73.39
2023-02-12T02:00:53.523Z,73.08
2023-02-12T02:03:21.699Z,72.86
2023-02-12T02:05:56.842Z,73.74
2023-02-12T02:08:25.888Z,74.72
2023-02-12T02:10:53.895Z,75.22
2023-02-12T02:13:40.717Z,75.49
2023-02-12T02:16:16.885Z,76.39
2023-02-12T02:18:54.516Z,78.74
2023-02-12T02:21:46.937Z,78.31
2023-02-12T02:24:49.380Z,76.79
2023-02-12T02:27:21.586Z,75.69
2023-02-12T02:30:27.500Z,77.53
2023-02-12T02:33:07.974Z,76.38
2023-02-12T02:35:42.777Z,75.74
2023-02-12T02:38:23.322Z,74.96
2023-02-12T02:40:56.989Z,74.99
2023-02-12T02:43:29.724Z,74.47
2023-02-12T02:46:02.389Z,75.04
2023-02-12T02:48:37.347Z,75.52
2023-02-12T02:51:10.085Z,76.56
2023-02-12T02:53:43.295Z,75.56
2023-02-12T02:56:15.890Z,75.25
2023-02-12T02:58:51.236Z,75.14
2023-02-12T03:01:22.970Z,74.80
2023-02-12T03:03:55.876Z,74.61
2023-02-12T03:06:28.641Z,74.75
2023-02-12T03:09:01.249Z,74.94
2023-02-12T03:11:33.084Z,74.44
2023-02-12T03:14:06.754Z,74.83
2023-02-12T03:16:40.036Z,75.89
2023-02-12T03:19:13.101Z,74.97
2023-02-12T03:21:44.782Z,75.00
2023-02-12T03:24:17.586Z,74.56
2023-02-12T03:26:49.606Z,74.81
2023-02-12T03:29:17.513Z,74.40
2023-02-12T03:31:55.026Z,74.51
2023-02-12T03:34:32.134Z,73.98
2023-02-12T03:37:04.030Z,74.58
2023-02-12T03:39:39.566Z,73.85
2023-02-12T03:42:11.323Z,74.74
2023-02-12T03:44:49.423Z,74.45
2023-02-12T03:47:23.965Z,74.60
2023-02-12T03:50:02.105Z,76.40
2023-02-12T03:52:31.117Z,75.92
2023-02-12T03:54:59.280Z,77.12
2023-02-12T03:57:31.404Z,77.26
2023-02-12T03:59:59.825Z,77.74
2023-02-12T04:02:27.822Z,78.90
2023-02-12T04:04:57.036Z,79.95
2023-02-12T04:07:25.070Z,80.26
2023-02-12T04:09:52.809Z,81.13
2023-02-12T04:12:35.796Z,81.75
2023-02-12T04:15:23.455Z,81.49
2023-02-12T04:18:02.863Z,80.67
2023-02-12T04:20:47.689Z,81.17
2023-02-12T04:23:23.768Z,80.97
2023-02-12T04:26:00.185Z,80.31
2023-02-12T04:28:38.406Z,80.56
2023-02-12T04:31:12.788Z,79.25
2023-02-12T04:33:45.793Z,80.51
2023-02-12T04:36:18.184Z,82.13
2023-02-12T04:38:52.283Z,81.41
2023-02-12T04:41:23.064Z,81.39
2023-02-12T04:43:51.099Z,80.97
2023-02-12T04:46:19.014Z,81.32
2023-02-12T04:48:54.594Z,82.14
2023-02-12T04:51:23.738Z,82.30
2023-02-12T04:53:51.955Z,82.73
2023-02-12T04:56:19.702Z,82.32
2023-02-12T04:58:47.522Z,82.75
2023-02-12T05:01:16.020Z,81.93
2023-02-12T05:03:43.775Z,81.98
2023-02-12T05:06:11.588Z,81.03
2023-02-12T05:08:40.970Z,79.90
2023-02-12T05:11:10.397Z,79.53
2023-02-12T05:13:38.801Z,79.47
2023-02-12T05:16:07.865Z,78.88
2023-02-12T05:18:36.693Z,78.43
2023-02-12T05:21:06.830Z,78.19
2023-02-12T05:23:36.653Z,77.27
2023-02-12T05:26:07.516Z,77.08
2023-02-12T05:28:35.488Z,77.59
2023-02-12T05:31:06.044Z,77.76
2023-02-12T05:33:34.204Z,77.20
2023-02-12T05:36:05.034Z,78.12
2023-02-12T05:38:33.144Z,78.39
2023-02-12T05:41:06.437Z,78.18
2023-02-12T05:43:34.772Z,78.09
2023-02-12T05:46:04.130Z,78.02
2023-02-12T05:48:33.455Z,78.03
2023-02-12T05:51:05.314Z,77.67
2023-02-12T05:53:33.099Z,78.40
2023-02-12T05:56:13.530Z,78.69
2023-02-12T05:58:43.611Z,78.85
2023-02-12T06:01:15.172Z,78.87
2023-02-12T06:03:43.311Z,78.77
2023-02-12T06:06:11.860Z,78.55
2023-02-12T06:08:40.064Z,78.58
2023-02-12T06:11:10.425Z,78.70
2023-02-12T06:13:39.641Z,78.53
2023-02-12T06:16:08.103Z,79.70
2023-02-12T06:18:37.873Z,80.40
2023-02-12T06:21:06.117Z,80.26
2023-02-12T06:23:33.850Z,79.63
2023-02-12T06:26:01.622Z,78.58
2023-02-12T06:28:29.449Z,77.91
2023-02-12T06:30:58.641Z,79.21
2023-02-12T06:33:26.610Z,79.70
2023-02-12T06:35:54.610Z,79.72
2023-02-12T06:38:22.970Z,79.53
2023-02-12T06:40:50.819Z,78.66
2023-02-12T06:43:18.870Z,78.53
2023-02-12T06:45:46.553Z,77.40
2023-02-12T06:48:15.665Z,76.67
2023-02-12T06:50:43.373Z,76.54
2023-02-12T06:53:11.117Z,76.46
2023-02-12T06:55:41.427Z,76.61
2023-02-12T06:58:09.221Z,76.57
2023-02-12T07:00:37.038Z,77.42
2023-02-12T07:03:07.824Z,76.34
2023-02-12T07:05:39.925Z,76.44
2023-02-12T07:08:07.662Z,75.84
2023-02-12T07:10:35.437Z,77.72
2023-02-12T07:13:03.837Z,77.82
2023-02-12T07:15:31.640Z,77.41
2023-02-12T07:17:59.406Z,76.49
2023-02-12T07:20:27.150Z,76.34
2023-02-12T07:22:56.308Z,77.28
2023-02-12T07:25:24.044Z,78.43
2023-02-12T07:27:51.797Z,79.90
2023-02-12T07:30:20.070Z,79.84
2023-02-12T07:32:47.818Z,79.86
2023-02-12T07:35:15.857Z,79.60
2023-02-12T07:37:43.560Z,79.41
2023-02-12T07:40:13.223Z,78.99
2023-02-12T07:42:40.977Z,80.23
2023-02-12T07:45:11.411Z,80.78
2023-02-12T07:47:40.622Z,80.71
2023-02-12T07:50:09.041Z,80.82
2023-02-12T07:52:36.788Z,80.47
2023-02-12T07:55:04.602Z,79.91
2023-02-12T07:57:33.730Z,79.50
2023-02-12T08:00:01.457Z,79.38
2023-02-12T08:02:29.249Z,78.47
2023-02-12T08:04:57.777Z,77.55
2023-02-12T08:07:25.764Z,76.50
2023-02-12T08:09:53.952Z,75.52
2023-02-12T08:12:21.701Z,74.63
2023-02-12T08:14:50.789Z,73.93
2023-02-12T08:17:18.509Z,74.56
2023-02-12T08:19:46.306Z,73.81
2023-02-12T08:22:14.349Z,72.73
2023-02-12T08:24:43.319Z,73.25
2023-02-12T08:27:11.194Z,72.63
2023-02-12T08:29:41.040Z,72.54
2023-02-12T08:32:14.229Z,72.49
2023-02-12T08:34:42.587Z,72.69
2023-02-12T08:37:10.377Z,72.93
2023-02-12T08:39:38.212Z,72.94
2023-02-12T08:42:06.081Z,72.70
2023-02-12T08:44:33.985Z,72.98
2023-02-12T08:47:01.695Z,72.42
2023-02-12T08:49:31.452Z,72.21
2023-02-12T08:52:01.834Z,71.75
2023-02-12T08:54:31.521Z,71.66
2023-02-12T08:57:01.303Z,71.80
2023-02-12T08:59:29.446Z,71.42
2023-02-12T09:01:57.357Z,70.63
2023-02-12T09:04:26.835Z,70.58
2023-02-12T09:06:56.920Z,71.01
2023-02-12T09:09:27.003Z,71.66
2023-02-12T09:11:54.819Z,73.51
2023-02-12T09:14:25.270Z,75.47
2023-02-12T09:16:53.854Z,76.40
2023-02-12T09:19:22.110Z,77.01
2023-02-12T09:21:55.257Z,76.97
2023-02-12T09:24:26.045Z,75.43
2023-02-12T09:26:53.999Z,76.46
2023-02-12T09:29:21.716Z,76.80
2023-02-12T09:31:49.568Z,75.65
2023-02-12T09:34:17.528Z,74.73
2023-02-12T09:36:45.332Z,73.08
2023-02-12T09:39:13.048Z,73.02
2023-02-12T09:42:15.292Z,72.12
2023-02-12T09:44:50.089Z,71.35
2023-02-12T09:47:27.875Z,70.13
2023-02-12T09:50:12.255Z,72.05
2023-02-12T09:52:41.168Z,73.86
2023-02-12T09:55:15.620Z,73.52
2023-02-12T09:57:45.790Z,73.98
2023-02-12T10:00:17.492Z,73.12
2023-02-12T10:02:49.664Z,72.90
2023-02-12T10:05:24.102Z,73.80
2023-02-12T10:08:14.543Z,71.96
2023-02-12T10:10:52.730Z,73.65
2023-02-12T10:13:38.430Z,75.06
2023-02-12T10:16:13.573Z,74.28
2023-02-12T10:19:00.971Z,75.02
2023-02-12T10:21:43.444Z,75.63
2023-02-12T10:24:30.339Z,74.94
2023-02-12T10:27:01.828Z,75.75
2023-02-12T10:29:35.539Z,75.86
2023-02-12T10:32:08.855Z,76.48
2023-02-12T10:34:38.170Z,73.63
2023-02-12T10:37:15.597Z,74.71
2023-02-12T10:39:49.218Z,74.84
2023-02-12T10:42:20.751Z,73.48
2023-02-12T10:44:49.949Z,71.30
2023-02-12T10:47:21.651Z,72.93
2023-02-12T10:49:53.775Z,74.16
2023-02-12T10:52:34.131Z,74.82
2023-02-12T10:55:01.925Z,74.35
2023-02-12T10:57:31.993Z,74.11
2023-02-12T11:00:25.406Z,72.70
2023-02-12T11:03:04.762Z,72.06
2023-02-12T11:05:35.649Z,73.85
2023-02-12T11:08:03.969Z,73.87
2023-02-12T11:10:34.038Z,73.39
2023-02-12T11:13:02.931Z,71.41
2023-02-12T11:15:38.755Z,71.17
2023-02-12T11:18:08.607Z,70.84
2023-02-12T11:20:41.269Z,70.41
2023-02-12T11:23:26.031Z,69.07
2023-02-12T11:25:59.910Z,69.17
2023-02-12T11:28:28.742Z,68.61
2023-02-12T11:31:00.390Z,68.79
2023-02-12T11:33:30.882Z,69.55
2023-02-12T11:36:01.461Z,68.88
2023-02-12T11:38:32.854Z,68.09
2023-02-12T11:41:06.174Z,69.63
2023-02-12T11:43:37.330Z,68.61
2023-02-12T11:46:09.194Z,67.11
2023-02-12T11:48:40.674Z,66.97
2023-02-12T11:51:10.973Z,67.51
2023-02-12T11:53:43.924Z,69.01
2023-02-12T11:56:14.651Z,67.28
2023-02-12T11:58:42.602Z,66.85
2023-02-12T12:01:19.404Z,66.53
2023-02-12T12:03:55.131Z,66.31
2023-02-12T12:06:29.180Z,66.29
2023-02-12T12:09:03.087Z,67.56
2023-02-12T12:11:38.303Z,66.18
2023-02-12T12:14:15.304Z,66.42
2023-02-12T12:17:10.131Z,67.00
2023-02-12T12:19:55.679Z,65.16
2023-02-12T12:22:41.580Z,65.73
2023-02-12T12:25:21.539Z,65.78
2023-02-12T12:28:08.262Z,65.10
2023-02-12T12:30:49.647Z,66.70
2023-02-12T12:33:27.395Z,66.22
2023-02-12T12:36:09.748Z,65.28
2023-02-12T12:38:48.206Z,65.28
2023-02-12T12:41:28.432Z,64.71
2023-02-12T12:44:11.907Z,64.64
2023-02-12T12:46:57.672Z,63.42
2023-02-12T12:49:53.701Z,66.28
2023-02-12T12:52:41.112Z,63.70
2023-02-12T12:55:31.695Z,62.68
2023-02-12T12:58:10.444Z,63.46
2023-02-12T13:01:06.119Z,64.29
2023-02-12T13:03:53.605Z,62.86
2023-02-12T13:06:39.139Z,63.44
2023-02-12T13:09:24.980Z,62.48
2023-02-12T13:12:07.814Z,62.18
2023-02-12T13:14:45.218Z,62.52
2023-02-12T13:17:24.589Z,61.59
2023-02-12T13:20:00.491Z,64.76
2023-02-12T13:22:36.414Z,63.88
2023-02-12T13:25:17.400Z,60.19
2023-02-12T13:27:47.465Z,60.03
2023-02-12T13:30:24.237Z,63.13
2023-02-12T13:33:04.119Z,66.14
2023-02-12T13:35:35.016Z,67.90
2023-02-12T13:38:08.623Z,65.76
2023-02-12T13:40:37.228Z,64.11
2023-02-12T13:43:20.059Z,66.47
2023-02-12T13:45:53.881Z,65.43
2023-02-12T13:48:34.975Z,66.81
2023-02-12T13:51:09.963Z,66.66
2023-02-12T13:53:52.534Z,67.36
2023-02-12T13:56:34.016Z,66.61
2023-02-12T13:59:01.846Z,66.95
2023-02-12T14:01:45.069Z,65.42
2023-02-12T14:04:33.900Z,68.87
2023-02-12T14:07:05.014Z,68.19
2023-02-12T14:09:38.670Z,67.36
2023-02-12T14:12:08.320Z,68.27
2023-02-12T14:14:39.865Z,66.77
2023-02-12T14:17:43.593Z,63.95
2023-02-12T14:20:27.707Z,63.73
2023-02-12T14:23:26.747Z,63.98
2023-02-12T14:26:02.514Z,63.47
2023-02-12T14:28:42.792Z,63.10
2023-02-12T14:31:38.444Z,63.24
2023-02-12T14:34:50.974Z,64.76
2023-02-12T14:37:35.958Z,64.39
2023-02-12T14:40:42.829Z,64.63
2023-02-12T14:43:59.600Z,65.27
2023-02-12T14:46:48.609Z,64.18
2023-02-12T14:49:24.868Z,63.16
2023-02-12T14:51:58.471Z,64.63
2023-02-12T14:54:31.508Z,65.33
2023-02-12T14:57:02.748Z,63.95
2023-02-12T14:59:38.487Z,64.46
2023-02-12T15:02:09.928Z,65.30
2023-02-12T15:04:39.421Z,65.07
2023-02-12T15:07:12.131Z,65.28
2023-02-12T15:09:46.016Z,64.44
2023-02-12T15:12:21.749Z,64.61
2023-02-12T15:15:00.149Z,64.37
2023-02-12T15:17:36.018Z,64.35
2023-02-12T15:20:08.939Z,63.75
2023-02-12T15:22:38.343Z,65.43
2023-02-12T15:25:16.576Z,65.03
2023-02-12T15:27:45.073Z,65.21
2023-02-12T15:30:26.612Z,64.52
2023-02-12T15:33:01.012Z,64.48
2023-02-12T15:35:32.321Z,65.09
2023-02-12T15:38:02.220Z,66.61
2023-02-12T15:40:30.948Z,66.25
2023-02-12T15:43:00.501Z,67.37
2023-02-12T15:45:31.028Z,66.02
2023-02-12T15:48:08.158Z,66.74
2023-02-12T15:50:38.809Z,67.34
2023-02-12T15:53:07.515Z,68.47
2023-02-12T15:55:40.968Z,67.42
2023-02-12T15:58:28.982Z,67.30
2023-02-12T16:01:08.359Z,67.76
2023-02-12T16:03:38.406Z,67.60
2023-02-12T16:06:12.016Z,68.14
2023-02-12T16:08:42.356Z,68.21
2023-02-12T16:11:15.010Z,68.61
2023-02-12T16:13:46.852Z,68.42
2023-02-12T16:16:30.520Z,68.13
2023-02-12T16:19:08.535Z,68.24
2023-02-12T16:21:40.084Z,69.37
2023-02-12T16:24:26.760Z,69.83
2023-02-12T16:26:55.551Z,70.54
2023-02-12T16:29:23.661Z,69.65
2023-02-12T16:31:58.959Z,69.46
2023-02-12T16:34:33.061Z,70.10
2023-02-12T16:37:01.223Z,69.59
2023-02-12T16:40:02.956Z,69.21
2023-02-12T16:42:33.181Z,69.38
2023-02-12T16:45:01.025Z,70.33
2023-02-12T16:47:30.248Z,69.93
2023-02-12T16:50:00.938Z,70.31
2023-02-12T16:52:35.588Z,70.60
2023-02-12T16:55:03.570Z,70.72
2023-02-12T16:57:31.377Z,71.09
2023-02-12T16:59:59.121Z,71.94
2023-02-12T17:02:26.998Z,72.34
2023-02-12T17:05:00.844Z,72.05
2023-02-12T17:07:30.952Z,71.67
2023-02-12T17:09:58.863Z,71.90
2023-02-12T17:12:27.480Z,72.41
2023-02-12T17:14:55.822Z,72.42
2023-02-12T17:17:23.636Z,71.95
2023-02-12T17:19:53.103Z,72.14
2023-02-12T17:22:24.684Z,71.90
2023-02-12T17:24:55.341Z,71.38
2023-02-12T17:27:23.766Z,71.78
2023-02-12T17:29:51.580Z,71.61
2023-02-12T17:32:19.426Z,72.49
2023-02-12T17:34:50.308Z,72.62
2023-02-12T17:37:19.065Z,72.64
2023-02-12T17:39:48.304Z,73.18
2023-02-12T17:42:16.225Z,73.66
2023-02-12T17:44:44.132Z,72.92
2023-02-12T17:47:14.112Z,72.38
2023-02-12T17:49:42.570Z,72.92
2023-02-12T17:52:10.597Z,74.92
2023-02-12T17:54:41.047Z,73.66
2023-02-12T17:57:13.015Z,75.95
2023-02-12T17:59:41.752Z,77.23
2023-02-12T18:02:11.243Z,77.63
2023-02-12T18:04:39.987Z,77.27
2023-02-12T18:07:07.900Z,76.29
2023-02-12T18:09:38.104Z,75.65
2023-02-12T18:12:07.803Z,76.66
2023-02-12T18:14:37.372Z,78.76
2023-02-12T18:17:05.285Z,80.28
2023-02-12T18:19:33.098Z,79.59
2023-02-12T18:22:00.856Z,78.92
2023-02-12T18:24:30.708Z,78.33
2023-02-12T18:26:58.480Z,78.99
2023-02-12T18:29:28.613Z,79.09
2023-02-12T18:31:59.716Z,78.91
2023-02-12T18:34:27.764Z,80.24
2023-02-12T18:36:55.571Z,79.66
2023-02-12T18:39:23.337Z,81.10
2023-02-12T18:41:51.150Z,80.42
2023-02-12T18:44:19.012Z,79.61
2023-02-12T18:46:46.759Z,79.20
2023-02-12T18:49:16.588Z,78.62
2023-02-12T18:51:44.611Z,80.84
2023-02-12T18:54:14.141Z,81.22
2023-02-12T18:56:45.005Z,81.98
2023-02-12T18:59:15.297Z,82.80
2023-02-12T19:01:44.291Z,82.06
2023-02-12T19:04:13.738Z,80.84
2023-02-12T19:06:45.601Z,81.65
2023-02-12T19:09:16.677Z,81.63
2023-02-12T19:11:46.551Z,79.92
2023-02-12T19:14:14.508Z,78.92
2023-02-12T19:16:42.612Z,81.07
2023-02-12T19:19:10.422Z,80.45
2023-02-12T19:21:39.496Z,79.08
2023-02-12T19:24:09.206Z,79.46
2023-02-12T19:26:37.342Z,79.74
2023-02-12T19:29:06.069Z,79.87
2023-02-12T19:31:36.114Z,84.18
2023-02-12T19:34:06.135Z,86.22
2023-02-12T19:36:37.038Z,85.75
2023-02-12T19:39:06.493Z,83.73
2023-02-12T19:41:40.818Z,84.41
2023-02-12T19:44:12.594Z,85.64
2023-02-12T19:46:40.984Z,87.09
2023-02-12T19:49:13.560Z,89.79
2023-02-12T19:51:41.728Z,91.61
2023-02-12T19:54:10.293Z,92.01
2023-02-12T19:56:40.043Z,90.40
2023-02-12T19:59:08.198Z,88.53
2023-02-12T20:01:38.149Z,86.34
2023-02-12T20:04:06.334Z,83.59
2023-02-12T20:06:36.990Z,86.59
2023-02-12T20:09:06.141Z,89.50
2023-02-12T20:11:37.347Z,91.48
2023-02-12T20:14:07.622Z,90.44
2023-02-12T20:16:38.256Z,88.25
2023-02-12T20:19:08.291Z,90.81
2023-02-12T20:21:39.191Z,91.47
2023-02-12T20:24:07.559Z,92.31
2023-02-12T20:26:36.435Z,92.51
2023-02-12T20:29:06.068Z,91.44
2023-02-12T20:31:35.876Z,94.42
2023-02-12T20:34:06.491Z,93.64
2023-02-12T20:36:36.691Z,90.25
2023-02-12T20:39:06.081Z,86.99
2023-02-12T20:41:34.922Z,83.99
2023-02-12T20:44:02.729Z,83.38
2023-02-12T20:46:31.937Z,81.82
2023-02-12T20:48:59.696Z,81.69
2023-02-12T20:51:28.913Z,81.92
2023-02-12T20:53:57.046Z,82.46
2023-02-12T20:56:27.342Z,83.52
2023-02-12T20:58:55.601Z,83.29
2023-02-12T21:01:26.597Z,83.80
2023-02-12T21:03:56.404Z,83.88
2023-02-12T21:06:25.512Z,83.38
2023-02-12T21:08:53.346Z,84.64
2023-02-12T21:11:23.070Z,83.87
2023-02-12T21:14:02.349Z,83.57
2023-02-12T21:16:33.503Z,82.41
2023-02-12T21:19:02.967Z,82.74
2023-02-12T21:21:32.757Z,82.75
2023-02-12T21:24:01.878Z,82.43
2023-02-12T21:26:33.231Z,82.64
2023-02-12T21:29:03.929Z,82.32
2023-02-12T21:31:34.107Z,83.38
2023-02-12T21:34:05.283Z,85.58
2023-02-12T21:36:37.670Z,84.48
2023-02-12T21:39:06.904Z,84.01
2023-02-12T21:41:36.743Z,83.77
2023-02-12T21:44:06.859Z,85.87
2023-02-12T21:46:35.559Z,89.80
2023-02-12T21:49:05.549Z,90.42
2023-02-12T21:51:37.050Z,91.73
2023-02-12T21:54:07.353Z,90.90
2023-02-12T21:56:36.751Z,91.51
2023-02-12T21:59:05.228Z,90.94
2023-02-12T22:01:35.774Z,88.25
2023-02-12T22:04:06.725Z,87.70
2023-02-12T22:06:37.864Z,86.44
2023-02-12T22:09:08.706Z,86.68
2023-02-12T22:11:36.972Z,85.08
2023-02-12T22:14:06.773Z,84.27
2023-02-12T22:16:35.557Z,83.92
2023-02-12T22:19:05.560Z,84.73
2023-02-12T22:21:35.251Z,85.85
2023-02-12T22:24:05.336Z,87.71
2023-02-12T22:26:33.918Z,89.04
2023-02-12T22:29:06.888Z,90.97
2023-02-12T22:31:37.411Z,92.34
2023-02-12T22:34:09.124Z,93.07
2023-02-12T22:36:39.193Z,91.65
2023-02-12T22:39:07.616Z,91.14
2023-02-12T22:41:35.944Z,90.15
2023-02-12T22:44:05.885Z,89.28
2023-02-12T22:46:36.076Z,89.49
2023-02-12T22:49:04.198Z,91.37
2023-02-12T22:51:34.565Z,93.41
2023-02-12T22:54:02.456Z,92.77
2023-02-12T22:56:30.219Z,94.37
2023-02-12T22:59:00.206Z,94.38
2023-02-12T23:01:29.739Z,93.83
2023-02-12T23:03:58.317Z,95.24
2023-02-12T23:06:27.663Z,99.00
2023-02-12T23:08:58.931Z,99.88
2023-02-12T23:11:28.065Z,97.33
2023-02-12T23:13:56.402Z,94.58
2023-02-12T23:16:24.659Z,96.08
2023-02-12T23:18:56.393Z,94.50
2023-02-12T23:21:24.648Z,92.26
2023-02-12T23:23:52.496Z,91.52
2023-02-12T23:26:21.799Z,91.24
2023-02-12T23:28:49.593Z,91.47
2023-02-12T23:31:19.498Z,89.92
2023-02-12T23:33:47.358Z,87.62
2023-02-12T23:36:15.468Z,87.41
2023-02-12T23:38:43.286Z,87.00
2023-02-12T23:41:11.092Z,88.25
2023-02-12T23:43:40.201Z,87.08
2023-02-12T23:46:09.180Z,90.89
2023-02-12T23:48:37.059Z,93.80
2023-02-12T23:51:05.486Z,93.71
2023-02-12T23:53:33.224Z,92.00
2023-02-12T23:56:01.027Z,89.20
2023-02-12T23:58:28.760Z,88.42
